sensor_id;sensor_type;location;lat;lon;timestamp;P1;durP1;ratioP1;P2;durP2;ratioP2
45198;SDS011;30941;46.422;18.772;2022-10-23T00:00:27;17.30;;;10.40;;
45198;SDS011;30941;46.422;18.772;2022-10-23T00:02:52;12.35;;;9.13;;
45198;SDS011;30941;46.422;18.772;2022-10-23T00:05:18;13.07;;;8.75;;
45198;SDS011;30941;46.422;18.772;2022-10-23T00:07:47;12.32;;;9.02;;
45198;SDS011;30941;46.422;18.772;2022-10-23T00:10:14;15.18;;;10.52;;
45198;SDS011;30941;46.422;18.772;2022-10-23T00:12:39;12.80;;;9.45;;
45198;SDS011;30941;46.422;18.772;2022-10-23T00:15:05;14.55;;;8.98;;
45198;SDS011;30941;46.422;18.772;2022-10-23T00:17:30;13.35;;;9.27;;
45198;SDS011;30941;46.422;18.772;2022-10-23T00:19:58;14.73;;;9.40;;
45198;SDS011;30941;46.422;18.772;2022-10-23T00:22:24;14.25;;;9.90;;
45198;SDS011;30941;46.422;18.772;2022-10-23T00:24:49;14.98;;;10.10;;
45198;SDS011;30941;46.422;18.772;2022-10-23T00:27:14;14.57;;;10.27;;
45198;SDS011;30941;46.422;18.772;2022-10-23T00:29:40;18.33;;;10.35;;
45198;SDS011;30941;46.422;18.772;2022-10-23T00:32:05;15.57;;;9.90;;
45198;SDS011;30941;46.422;18.772;2022-10-23T00:34:31;17.17;;;10.95;;
45198;SDS011;30941;46.422;18.772;2022-10-23T00:36:56;12.98;;;9.88;;
45198;SDS011;30941;46.422;18.772;2022-10-23T00:39:21;15.30;;;10.95;;
45198;SDS011;30941;46.422;18.772;2022-10-23T00:41:47;16.73;;;11.63;;
45198;SDS011;30941;46.422;18.772;2022-10-23T00:46:46;16.30;;;11.07;;
45198;SDS011;30941;46.422;18.772;2022-10-23T00:49:12;15.93;;;10.65;;
45198;SDS011;30941;46.422;18.772;2022-10-23T00:51:39;14.27;;;10.10;;
45198;SDS011;30941;46.422;18.772;2022-10-23T00:54:09;15.77;;;11.05;;
45198;SDS011;30941;46.422;18.772;2022-10-23T00:56:37;14.93;;;10.50;;
45198;SDS011;30941;46.422;18.772;2022-10-23T00:59:03;14.02;;;10.05;;
45198;SDS011;30941;46.422;18.772;2022-10-23T01:01:29;14.60;;;9.98;;
45198;SDS011;30941;46.422;18.772;2022-10-23T01:03:54;16.80;;;11.95;;
45198;SDS011;30941;46.422;18.772;2022-10-23T01:06:24;18.35;;;11.27;;
45198;SDS011;30941;46.422;18.772;2022-10-23T01:11:41;15.30;;;10.73;;
45198;SDS011;30941;46.422;18.772;2022-10-23T01:17:26;18.40;;;11.35;;
45198;SDS011;30941;46.422;18.772;2022-10-23T01:23:02;17.42;;;11.60;;
45198;SDS011;30941;46.422;18.772;2022-10-23T01:27:59;17.83;;;11.20;;
45198;SDS011;30941;46.422;18.772;2022-10-23T01:30:26;18.95;;;11.60;;
45198;SDS011;30941;46.422;18.772;2022-10-23T01:32:55;18.08;;;11.75;;
45198;SDS011;30941;46.422;18.772;2022-10-23T01:35:23;15.57;;;11.20;;
45198;SDS011;30941;46.422;18.772;2022-10-23T01:43:26;17.85;;;11.15;;
45198;SDS011;30941;46.422;18.772;2022-10-23T01:46:02;18.63;;;11.45;;
45198;SDS011;30941;46.422;18.772;2022-10-23T01:48:30;19.77;;;12.10;;
45198;SDS011;30941;46.422;18.772;2022-10-23T01:50:59;16.92;;;11.23;;
45198;SDS011;30941;46.422;18.772;2022-10-23T01:53:26;16.90;;;11.30;;
45198;SDS011;30941;46.422;18.772;2022-10-23T01:55:54;18.55;;;11.45;;
45198;SDS011;30941;46.422;18.772;2022-10-23T01:58:20;16.58;;;11.63;;
45198;SDS011;30941;46.422;18.772;2022-10-23T02:00:47;16.65;;;10.63;;
45198;SDS011;30941;46.422;18.772;2022-10-23T02:03:14;18.17;;;11.63;;
45198;SDS011;30941;46.422;18.772;2022-10-23T02:05:40;14.95;;;9.63;;
45198;SDS011;30941;46.422;18.772;2022-10-23T02:08:06;16.73;;;10.27;;
45198;SDS011;30941;46.422;18.772;2022-10-23T02:15:53;13.38;;;9.35;;
45198;SDS011;30941;46.422;18.772;2022-10-23T02:20:56;13.75;;;9.95;;
45198;SDS011;30941;46.422;18.772;2022-10-23T02:28:54;12.80;;;9.25;;
45198;SDS011;30941;46.422;18.772;2022-10-23T02:31:22;16.20;;;9.48;;
45198;SDS011;30941;46.422;18.772;2022-10-23T02:33:48;17.13;;;9.90;;
45198;SDS011;30941;46.422;18.772;2022-10-23T02:36:14;14.93;;;8.77;;
45198;SDS011;30941;46.422;18.772;2022-10-23T02:38:40;12.40;;;8.90;;
45198;SDS011;30941;46.422;18.772;2022-10-23T02:49:01;12.13;;;8.15;;
45198;SDS011;30941;46.422;18.772;2022-10-23T02:51:39;15.30;;;8.90;;
45198;SDS011;30941;46.422;18.772;2022-10-23T02:54:18;14.02;;;8.50;;
45198;SDS011;30941;46.422;18.772;2022-10-23T02:59:29;13.15;;;8.02;;
45198;SDS011;30941;46.422;18.772;2022-10-23T03:02:03;12.35;;;7.97;;
45198;SDS011;30941;46.422;18.772;2022-10-23T03:04:38;11.82;;;8.07;;
45198;SDS011;30941;46.422;18.772;2022-10-23T03:07:04;11.32;;;8.02;;
45198;SDS011;30941;46.422;18.772;2022-10-23T03:09:29;12.75;;;9.02;;
45198;SDS011;30941;46.422;18.772;2022-10-23T03:11:55;12.60;;;8.00;;
45198;SDS011;30941;46.422;18.772;2022-10-23T03:14:20;12.32;;;8.35;;
45198;SDS011;30941;46.422;18.772;2022-10-23T03:16:45;17.80;;;9.77;;
45198;SDS011;30941;46.422;18.772;2022-10-23T03:19:11;15.77;;;8.95;;
45198;SDS011;30941;46.422;18.772;2022-10-23T03:21:36;12.55;;;8.40;;
45198;SDS011;30941;46.422;18.772;2022-10-23T03:24:02;16.88;;;9.75;;
45198;SDS011;30941;46.422;18.772;2022-10-23T03:26:27;12.48;;;7.90;;
45198;SDS011;30941;46.422;18.772;2022-10-23T03:28:52;11.27;;;8.65;;
45198;SDS011;30941;46.422;18.772;2022-10-23T03:31:18;13.18;;;9.00;;
45198;SDS011;30941;46.422;18.772;2022-10-23T03:33:43;13.32;;;8.48;;
45198;SDS011;30941;46.422;18.772;2022-10-23T03:36:08;12.20;;;8.45;;
45198;SDS011;30941;46.422;18.772;2022-10-23T03:38:34;11.73;;;8.35;;
45198;SDS011;30941;46.422;18.772;2022-10-23T03:40:59;10.73;;;7.47;;
45198;SDS011;30941;46.422;18.772;2022-10-23T03:43:25;12.23;;;8.05;;
45198;SDS011;30941;46.422;18.772;2022-10-23T03:45:51;11.82;;;7.82;;
45198;SDS011;30941;46.422;18.772;2022-10-23T03:48:16;11.85;;;8.15;;
45198;SDS011;30941;46.422;18.772;2022-10-23T03:50:43;12.20;;;7.95;;
45198;SDS011;30941;46.422;18.772;2022-10-23T03:53:08;13.15;;;8.13;;
45198;SDS011;30941;46.422;18.772;2022-10-23T03:55:34;11.93;;;7.97;;
45198;SDS011;30941;46.422;18.772;2022-10-23T03:57:59;9.45;;;7.15;;
45198;SDS011;30941;46.422;18.772;2022-10-23T04:00:24;9.73;;;7.45;;
45198;SDS011;30941;46.422;18.772;2022-10-23T04:02:50;9.50;;;6.85;;
45198;SDS011;30941;46.422;18.772;2022-10-23T04:05:15;9.98;;;7.20;;
45198;SDS011;30941;46.422;18.772;2022-10-23T04:07:41;8.68;;;6.28;;
45198;SDS011;30941;46.422;18.772;2022-10-23T04:10:06;9.05;;;6.45;;
45198;SDS011;30941;46.422;18.772;2022-10-23T04:12:32;9.57;;;6.78;;
45198;SDS011;30941;46.422;18.772;2022-10-23T04:14:58;8.88;;;6.10;;
45198;SDS011;30941;46.422;18.772;2022-10-23T04:17:23;8.93;;;6.07;;
45198;SDS011;30941;46.422;18.772;2022-10-23T04:19:49;9.57;;;6.10;;
45198;SDS011;30941;46.422;18.772;2022-10-23T04:22:14;8.43;;;6.25;;
45198;SDS011;30941;46.422;18.772;2022-10-23T04:24:39;8.38;;;5.95;;
45198;SDS011;30941;46.422;18.772;2022-10-23T04:27:10;8.15;;;5.85;;
45198;SDS011;30941;46.422;18.772;2022-10-23T04:29:36;8.63;;;5.65;;
45198;SDS011;30941;46.422;18.772;2022-10-23T04:32:01;9.35;;;5.78;;
45198;SDS011;30941;46.422;18.772;2022-10-23T04:34:27;10.43;;;6.38;;
45198;SDS011;30941;46.422;18.772;2022-10-23T04:36:52;9.20;;;6.03;;
45198;SDS011;30941;46.422;18.772;2022-10-23T04:39:17;11.90;;;6.75;;
45198;SDS011;30941;46.422;18.772;2022-10-23T04:41:43;11.30;;;7.75;;
45198;SDS011;30941;46.422;18.772;2022-10-23T04:44:08;9.07;;;6.75;;
45198;SDS011;30941;46.422;18.772;2022-10-23T04:46:33;12.07;;;6.82;;
45198;SDS011;30941;46.422;18.772;2022-10-23T04:48:59;11.40;;;7.10;;
45198;SDS011;30941;46.422;18.772;2022-10-23T04:51:24;9.35;;;6.70;;
45198;SDS011;30941;46.422;18.772;2022-10-23T04:53:49;13.48;;;8.85;;
45198;SDS011;30941;46.422;18.772;2022-10-23T04:56:15;11.32;;;8.35;;
45198;SDS011;30941;46.422;18.772;2022-10-23T04:58:41;12.60;;;8.32;;
45198;SDS011;30941;46.422;18.772;2022-10-23T05:01:07;17.75;;;13.23;;
45198;SDS011;30941;46.422;18.772;2022-10-23T05:03:35;19.48;;;13.05;;
45198;SDS011;30941;46.422;18.772;2022-10-23T05:06:01;15.07;;;9.98;;
45198;SDS011;30941;46.422;18.772;2022-10-23T05:08:26;19.13;;;14.63;;
45198;SDS011;30941;46.422;18.772;2022-10-23T05:10:52;17.13;;;13.25;;
45198;SDS011;30941;46.422;18.772;2022-10-23T05:13:17;18.85;;;13.75;;
45198;SDS011;30941;46.422;18.772;2022-10-23T05:15:47;15.95;;;12.02;;
45198;SDS011;30941;46.422;18.772;2022-10-23T05:18:15;14.30;;;10.35;;
45198;SDS011;30941;46.422;18.772;2022-10-23T05:20:42;17.10;;;11.60;;
45198;SDS011;30941;46.422;18.772;2022-10-23T05:23:09;16.60;;;10.60;;
45198;SDS011;30941;46.422;18.772;2022-10-23T05:25:35;13.18;;;10.43;;
45198;SDS011;30941;46.422;18.772;2022-10-23T05:28:01;13.80;;;9.60;;
45198;SDS011;30941;46.422;18.772;2022-10-23T05:30:26;16.08;;;10.90;;
45198;SDS011;30941;46.422;18.772;2022-10-23T05:32:52;17.65;;;10.55;;
45198;SDS011;30941;46.422;18.772;2022-10-23T05:35:19;17.75;;;11.35;;
45198;SDS011;30941;46.422;18.772;2022-10-23T05:37:46;15.80;;;10.80;;
45198;SDS011;30941;46.422;18.772;2022-10-23T05:40:12;16.05;;;9.77;;
45198;SDS011;30941;46.422;18.772;2022-10-23T05:42:37;17.63;;;11.48;;
45198;SDS011;30941;46.422;18.772;2022-10-23T05:45:03;16.13;;;10.15;;
45198;SDS011;30941;46.422;18.772;2022-10-23T05:47:28;18.13;;;10.82;;
45198;SDS011;30941;46.422;18.772;2022-10-23T05:49:55;15.65;;;9.30;;
45198;SDS011;30941;46.422;18.772;2022-10-23T05:52:21;14.30;;;9.68;;
45198;SDS011;30941;46.422;18.772;2022-10-23T05:54:46;14.65;;;9.25;;
45198;SDS011;30941;46.422;18.772;2022-10-23T05:57:11;16.30;;;9.88;;
45198;SDS011;30941;46.422;18.772;2022-10-23T05:59:37;12.60;;;9.25;;
45198;SDS011;30941;46.422;18.772;2022-10-23T06:02:02;11.73;;;8.52;;
45198;SDS011;30941;46.422;18.772;2022-10-23T06:04:27;13.70;;;9.52;;
45198;SDS011;30941;46.422;18.772;2022-10-23T06:06:53;14.02;;;9.52;;
45198;SDS011;30941;46.422;18.772;2022-10-23T06:09:18;13.52;;;9.35;;
45198;SDS011;30941;46.422;18.772;2022-10-23T06:11:43;15.63;;;10.65;;
45198;SDS011;30941;46.422;18.772;2022-10-23T06:14:09;14.85;;;10.25;;
45198;SDS011;30941;46.422;18.772;2022-10-23T06:16:34;17.05;;;9.63;;
45198;SDS011;30941;46.422;18.772;2022-10-23T06:19:00;13.73;;;10.02;;
45198;SDS011;30941;46.422;18.772;2022-10-23T06:21:25;14.55;;;10.40;;
45198;SDS011;30941;46.422;18.772;2022-10-23T06:23:51;14.18;;;10.27;;
45198;SDS011;30941;46.422;18.772;2022-10-23T06:26:16;14.13;;;9.40;;
45198;SDS011;30941;46.422;18.772;2022-10-23T06:28:42;11.48;;;8.48;;
45198;SDS011;30941;46.422;18.772;2022-10-23T06:31:09;15.27;;;9.60;;
45198;SDS011;30941;46.422;18.772;2022-10-23T06:33:35;13.43;;;9.63;;
45198;SDS011;30941;46.422;18.772;2022-10-23T06:36:01;13.70;;;9.50;;
45198;SDS011;30941;46.422;18.772;2022-10-23T06:38:28;12.40;;;8.95;;
45198;SDS011;30941;46.422;18.772;2022-10-23T06:40:54;12.88;;;9.07;;
45198;SDS011;30941;46.422;18.772;2022-10-23T06:43:20;12.32;;;9.20;;
45198;SDS011;30941;46.422;18.772;2022-10-23T06:45:45;13.60;;;8.77;;
45198;SDS011;30941;46.422;18.772;2022-10-23T06:48:10;12.93;;;9.20;;
45198;SDS011;30941;46.422;18.772;2022-10-23T06:50:36;11.38;;;8.50;;
45198;SDS011;30941;46.422;18.772;2022-10-23T06:53:03;10.88;;;8.30;;
45198;SDS011;30941;46.422;18.772;2022-10-23T06:55:29;10.57;;;8.18;;
45198;SDS011;30941;46.422;18.772;2022-10-23T06:57:55;11.98;;;9.05;;
45198;SDS011;30941;46.422;18.772;2022-10-23T07:00:20;17.00;;;9.68;;
45198;SDS011;30941;46.422;18.772;2022-10-23T07:02:46;10.93;;;8.25;;
45198;SDS011;30941;46.422;18.772;2022-10-23T07:05:11;9.23;;;6.97;;
45198;SDS011;30941;46.422;18.772;2022-10-23T07:07:37;13.20;;;8.55;;
45198;SDS011;30941;46.422;18.772;2022-10-23T07:10:03;9.77;;;7.82;;
45198;SDS011;30941;46.422;18.772;2022-10-23T07:12:29;11.40;;;7.63;;
45198;SDS011;30941;46.422;18.772;2022-10-23T07:14:54;9.80;;;7.13;;
45198;SDS011;30941;46.422;18.772;2022-10-23T07:17:20;10.30;;;7.40;;
45198;SDS011;30941;46.422;18.772;2022-10-23T07:19:45;9.98;;;7.57;;
45198;SDS011;30941;46.422;18.772;2022-10-23T07:22:11;10.50;;;8.05;;
45198;SDS011;30941;46.422;18.772;2022-10-23T07:24:36;11.18;;;8.18;;
45198;SDS011;30941;46.422;18.772;2022-10-23T07:27:03;13.13;;;8.65;;
45198;SDS011;30941;46.422;18.772;2022-10-23T07:29:29;9.57;;;7.60;;
45198;SDS011;30941;46.422;18.772;2022-10-23T07:31:54;11.73;;;8.05;;
45198;SDS011;30941;46.422;18.772;2022-10-23T07:34:20;10.15;;;7.93;;
45198;SDS011;30941;46.422;18.772;2022-10-23T07:36:45;8.68;;;7.03;;
45198;SDS011;30941;46.422;18.772;2022-10-23T07:39:10;10.20;;;7.75;;
45198;SDS011;30941;46.422;18.772;2022-10-23T07:41:36;10.18;;;6.93;;
45198;SDS011;30941;46.422;18.772;2022-10-23T07:44:01;8.88;;;6.53;;
45198;SDS011;30941;46.422;18.772;2022-10-23T07:46:27;8.88;;;6.50;;
45198;SDS011;30941;46.422;18.772;2022-10-23T07:48:52;7.88;;;5.47;;
45198;SDS011;30941;46.422;18.772;2022-10-23T07:51:17;7.88;;;6.25;;
45198;SDS011;30941;46.422;18.772;2022-10-23T07:53:43;8.50;;;5.60;;
45198;SDS011;30941;46.422;18.772;2022-10-23T07:56:09;7.20;;;5.72;;
45198;SDS011;30941;46.422;18.772;2022-10-23T07:58:37;8.05;;;5.55;;
45198;SDS011;30941;46.422;18.772;2022-10-23T08:01:03;9.02;;;6.32;;
45198;SDS011;30941;46.422;18.772;2022-10-23T08:03:29;8.43;;;6.78;;
45198;SDS011;30941;46.422;18.772;2022-10-23T08:05:56;9.27;;;6.53;;
45198;SDS011;30941;46.422;18.772;2022-10-23T08:08:22;8.35;;;6.22;;
45198;SDS011;30941;46.422;18.772;2022-10-23T08:10:49;8.52;;;6.22;;
45198;SDS011;30941;46.422;18.772;2022-10-23T08:13:15;8.60;;;6.28;;
45198;SDS011;30941;46.422;18.772;2022-10-23T08:15:41;8.75;;;6.05;;
45198;SDS011;30941;46.422;18.772;2022-10-23T08:18:08;9.68;;;6.43;;
45198;SDS011;30941;46.422;18.772;2022-10-23T08:20:37;8.70;;;6.70;;
45198;SDS011;30941;46.422;18.772;2022-10-23T08:23:03;7.75;;;6.05;;
45198;SDS011;30941;46.422;18.772;2022-10-23T08:25:29;8.95;;;6.47;;
45198;SDS011;30941;46.422;18.772;2022-10-23T08:27:54;7.70;;;5.93;;
45198;SDS011;30941;46.422;18.772;2022-10-23T08:30:19;8.63;;;6.25;;
45198;SDS011;30941;46.422;18.772;2022-10-23T08:32:45;7.60;;;6.53;;
45198;SDS011;30941;46.422;18.772;2022-10-23T08:35:10;9.55;;;6.45;;
45198;SDS011;30941;46.422;18.772;2022-10-23T08:37:35;6.53;;;5.22;;
45198;SDS011;30941;46.422;18.772;2022-10-23T08:40:01;7.93;;;5.28;;
45198;SDS011;30941;46.422;18.772;2022-10-23T08:42:27;7.18;;;5.55;;
45198;SDS011;30941;46.422;18.772;2022-10-23T08:45:01;7.30;;;5.97;;
45198;SDS011;30941;46.422;18.772;2022-10-23T08:47:33;7.60;;;6.07;;
45198;SDS011;30941;46.422;18.772;2022-10-23T08:50:05;7.63;;;6.22;;
45198;SDS011;30941;46.422;18.772;2022-10-23T08:52:46;7.57;;;4.70;;
45198;SDS011;30941;46.422;18.772;2022-10-23T08:55:17;6.60;;;5.22;;
45198;SDS011;30941;46.422;18.772;2022-10-23T08:57:50;6.50;;;4.88;;
45198;SDS011;30941;46.422;18.772;2022-10-23T09:00:21;7.03;;;5.32;;
45198;SDS011;30941;46.422;18.772;2022-10-23T09:02:48;6.10;;;4.78;;
45198;SDS011;30941;46.422;18.772;2022-10-23T09:05:26;7.35;;;4.88;;
45198;SDS011;30941;46.422;18.772;2022-10-23T09:18:47;7.18;;;5.40;;
45198;SDS011;30941;46.422;18.772;2022-10-23T09:21:14;7.13;;;5.45;;
45198;SDS011;30941;46.422;18.772;2022-10-23T09:23:39;8.13;;;5.40;;
45198;SDS011;30941;46.422;18.772;2022-10-23T09:26:15;5.75;;;4.85;;
45198;SDS011;30941;46.422;18.772;2022-10-23T09:28:45;5.75;;;4.63;;
45198;SDS011;30941;46.422;18.772;2022-10-23T09:31:14;5.85;;;4.72;;
45198;SDS011;30941;46.422;18.772;2022-10-23T09:33:40;7.05;;;4.90;;
45198;SDS011;30941;46.422;18.772;2022-10-23T09:36:14;5.32;;;4.25;;
45198;SDS011;30941;46.422;18.772;2022-10-23T09:38:47;5.25;;;4.20;;
45198;SDS011;30941;46.422;18.772;2022-10-23T09:41:18;4.45;;;3.58;;
45198;SDS011;30941;46.422;18.772;2022-10-23T09:46:37;4.10;;;3.47;;
45198;SDS011;30941;46.422;18.772;2022-10-23T09:49:23;4.25;;;3.55;;
45198;SDS011;30941;46.422;18.772;2022-10-23T09:54:30;4.18;;;3.30;;
45198;SDS011;30941;46.422;18.772;2022-10-23T09:56:58;7.43;;;3.90;;
45198;SDS011;30941;46.422;18.772;2022-10-23T09:59:28;4.53;;;3.22;;
45198;SDS011;30941;46.422;18.772;2022-10-23T10:01:55;3.13;;;2.60;;
45198;SDS011;30941;46.422;18.772;2022-10-23T10:06:57;6.15;;;2.90;;
45198;SDS011;30941;46.422;18.772;2022-10-23T10:09:23;3.78;;;3.10;;
45198;SDS011;30941;46.422;18.772;2022-10-23T10:11:50;4.03;;;3.28;;
45198;SDS011;30941;46.422;18.772;2022-10-23T10:20:33;4.28;;;3.03;;
45198;SDS011;30941;46.422;18.772;2022-10-23T10:23:36;4.00;;;2.95;;
45198;SDS011;30941;46.422;18.772;2022-10-23T10:32:32;5.15;;;3.88;;
45198;SDS011;30941;46.422;18.772;2022-10-23T10:37:58;4.47;;;3.50;;
45198;SDS011;30941;46.422;18.772;2022-10-23T10:40:27;4.72;;;3.40;;
45198;SDS011;30941;46.422;18.772;2022-10-23T10:45:32;5.85;;;4.97;;
45198;SDS011;30941;46.422;18.772;2022-10-23T10:48:12;6.38;;;5.35;;
45198;SDS011;30941;46.422;18.772;2022-10-23T10:56:18;9.77;;;7.55;;
45198;SDS011;30941;46.422;18.772;2022-10-23T10:58:51;8.60;;;6.97;;
45198;SDS011;30941;46.422;18.772;2022-10-23T11:01:20;9.25;;;7.30;;
45198;SDS011;30941;46.422;18.772;2022-10-23T11:06:25;9.05;;;7.25;;
45198;SDS011;30941;46.422;18.772;2022-10-23T11:08:52;10.15;;;7.43;;
45198;SDS011;30941;46.422;18.772;2022-10-23T11:11:19;8.95;;;6.95;;
45198;SDS011;30941;46.422;18.772;2022-10-23T11:13:48;8.70;;;6.80;;
45198;SDS011;30941;46.422;18.772;2022-10-23T11:17:17;8.63;;;7.45;;
45198;SDS011;30941;46.422;18.772;2022-10-23T11:19:21;9.27;;;7.75;;
45198;SDS011;30941;46.422;18.772;2022-10-23T11:37:09;10.68;;;8.60;;
45198;SDS011;30941;46.422;18.772;2022-10-23T11:39:40;11.20;;;8.60;;
45198;SDS011;30941;46.422;18.772;2022-10-23T11:47:02;11.18;;;8.43;;
45198;SDS011;30941;46.422;18.772;2022-10-23T11:49:29;10.48;;;8.02;;
45198;SDS011;30941;46.422;18.772;2022-10-23T11:51:58;9.93;;;7.75;;
45198;SDS011;30941;46.422;18.772;2022-10-23T12:02:18;9.55;;;7.95;;
45198;SDS011;30941;46.422;18.772;2022-10-23T12:04:48;10.18;;;7.65;;
45198;SDS011;30941;46.422;18.772;2022-10-23T12:07:16;10.15;;;8.02;;
45198;SDS011;30941;46.422;18.772;2022-10-23T12:09:51;10.73;;;8.75;;
45198;SDS011;30941;46.422;18.772;2022-10-23T12:19:51;10.45;;;7.88;;
45198;SDS011;30941;46.422;18.772;2022-10-23T12:22:18;10.00;;;8.75;;
45198;SDS011;30941;46.422;18.772;2022-10-23T12:27:29;10.77;;;8.38;;
45198;SDS011;30941;46.422;18.772;2022-10-23T12:33:03;11.38;;;8.68;;
45198;SDS011;30941;46.422;18.772;2022-10-23T12:38:21;13.45;;;9.85;;
45198;SDS011;30941;46.422;18.772;2022-10-23T12:40:55;13.60;;;9.45;;
45198;SDS011;30941;46.422;18.772;2022-10-23T12:43:33;11.27;;;8.90;;
45198;SDS011;30941;46.422;18.772;2022-10-23T12:46:04;12.88;;;9.52;;
45198;SDS011;30941;46.422;18.772;2022-10-23T12:48:46;11.95;;;9.27;;
45198;SDS011;30941;46.422;18.772;2022-10-23T12:51:15;11.65;;;8.95;;
45198;SDS011;30941;46.422;18.772;2022-10-23T12:56:14;11.25;;;8.63;;
45198;SDS011;30941;46.422;18.772;2022-10-23T12:58:45;13.77;;;8.80;;
45198;SDS011;30941;46.422;18.772;2022-10-23T13:01:20;11.30;;;8.05;;
45198;SDS011;30941;46.422;18.772;2022-10-23T13:03:47;10.18;;;8.15;;
45198;SDS011;30941;46.422;18.772;2022-10-23T13:06:14;10.25;;;8.00;;
45198;SDS011;30941;46.422;18.772;2022-10-23T13:08:40;8.27;;;7.38;;
45198;SDS011;30941;46.422;18.772;2022-10-23T13:11:07;10.43;;;8.07;;
45198;SDS011;30941;46.422;18.772;2022-10-23T13:13:34;9.27;;;7.07;;
45198;SDS011;30941;46.422;18.772;2022-10-23T13:15:59;9.45;;;7.45;;
45198;SDS011;30941;46.422;18.772;2022-10-23T13:18:24;9.20;;;7.15;;
45198;SDS011;30941;46.422;18.772;2022-10-23T13:23:26;9.18;;;6.88;;
45198;SDS011;30941;46.422;18.772;2022-10-23T13:25:57;8.68;;;6.70;;
45198;SDS011;30941;46.422;18.772;2022-10-23T13:28:39;10.05;;;6.88;;
45198;SDS011;30941;46.422;18.772;2022-10-23T13:33:38;8.27;;;6.63;;
45198;SDS011;30941;46.422;18.772;2022-10-23T13:38:38;9.25;;;6.95;;
45198;SDS011;30941;46.422;18.772;2022-10-23T13:41:34;10.07;;;6.85;;
45198;SDS011;30941;46.422;18.772;2022-10-23T13:44:04;8.40;;;6.53;;
45198;SDS011;30941;46.422;18.772;2022-10-23T13:46:29;8.27;;;6.25;;
45198;SDS011;30941;46.422;18.772;2022-10-23T13:48:55;8.30;;;6.28;;
45198;SDS011;30941;46.422;18.772;2022-10-23T13:51:27;6.55;;;5.35;;
45198;SDS011;30941;46.422;18.772;2022-10-23T13:53:53;6.65;;;5.40;;
45198;SDS011;30941;46.422;18.772;2022-10-23T13:56:19;8.23;;;6.30;;
45198;SDS011;30941;46.422;18.772;2022-10-23T13:58:46;7.57;;;5.93;;
45198;SDS011;30941;46.422;18.772;2022-10-23T14:01:28;8.43;;;4.95;;
45198;SDS011;30941;46.422;18.772;2022-10-23T14:03:55;7.40;;;5.60;;
45198;SDS011;30941;46.422;18.772;2022-10-23T14:06:21;8.60;;;5.40;;
45198;SDS011;30941;46.422;18.772;2022-10-23T14:08:46;7.18;;;5.95;;
45198;SDS011;30941;46.422;18.772;2022-10-23T14:11:13;6.18;;;5.22;;
45198;SDS011;30941;46.422;18.772;2022-10-23T14:13:39;8.60;;;5.68;;
45198;SDS011;30941;46.422;18.772;2022-10-23T14:16:05;6.32;;;5.40;;
45198;SDS011;30941;46.422;18.772;2022-10-23T14:18:31;8.00;;;5.88;;
45198;SDS011;30941;46.422;18.772;2022-10-23T14:20:59;7.07;;;5.30;;
45198;SDS011;30941;46.422;18.772;2022-10-23T14:23:25;8.65;;;6.00;;
45198;SDS011;30941;46.422;18.772;2022-10-23T14:25:51;6.85;;;5.75;;
45198;SDS011;30941;46.422;18.772;2022-10-23T14:28:16;7.68;;;6.25;;
45198;SDS011;30941;46.422;18.772;2022-10-23T14:30:41;7.32;;;5.95;;
45198;SDS011;30941;46.422;18.772;2022-10-23T14:33:08;6.82;;;5.93;;
45198;SDS011;30941;46.422;18.772;2022-10-23T14:35:33;7.25;;;6.10;;
45198;SDS011;30941;46.422;18.772;2022-10-23T14:37:58;8.80;;;6.78;;
45198;SDS011;30941;46.422;18.772;2022-10-23T14:40:24;8.30;;;6.63;;
45198;SDS011;30941;46.422;18.772;2022-10-23T14:42:50;7.43;;;6.53;;
45198;SDS011;30941;46.422;18.772;2022-10-23T14:45:15;8.82;;;6.75;;
45198;SDS011;30941;46.422;18.772;2022-10-23T14:47:40;7.93;;;7.03;;
45198;SDS011;30941;46.422;18.772;2022-10-23T14:50:06;9.05;;;7.05;;
45198;SDS011;30941;46.422;18.772;2022-10-23T14:52:34;11.15;;;7.75;;
45198;SDS011;30941;46.422;18.772;2022-10-23T14:54:59;9.25;;;7.45;;
45198;SDS011;30941;46.422;18.772;2022-10-23T14:57:25;7.80;;;6.60;;
45198;SDS011;30941;46.422;18.772;2022-10-23T14:59:51;8.55;;;7.25;;
45198;SDS011;30941;46.422;18.772;2022-10-23T15:02:16;8.45;;;6.82;;
45198;SDS011;30941;46.422;18.772;2022-10-23T15:04:41;10.00;;;8.23;;
45198;SDS011;30941;46.422;18.772;2022-10-23T15:07:07;9.88;;;7.03;;
45198;SDS011;30941;46.422;18.772;2022-10-23T15:09:32;9.88;;;7.55;;
45198;SDS011;30941;46.422;18.772;2022-10-23T15:12:01;8.77;;;7.05;;
45198;SDS011;30941;46.422;18.772;2022-10-23T15:14:27;10.55;;;7.55;;
45198;SDS011;30941;46.422;18.772;2022-10-23T15:16:53;9.10;;;7.30;;
45198;SDS011;30941;46.422;18.772;2022-10-23T15:19:18;12.00;;;7.68;;
45198;SDS011;30941;46.422;18.772;2022-10-23T15:21:43;10.00;;;8.10;;
45198;SDS011;30941;46.422;18.772;2022-10-23T15:24:09;9.77;;;8.43;;
45198;SDS011;30941;46.422;18.772;2022-10-23T15:26:34;10.18;;;8.00;;
45198;SDS011;30941;46.422;18.772;2022-10-23T15:29:02;10.88;;;7.60;;
45198;SDS011;30941;46.422;18.772;2022-10-23T15:33:52;10.40;;;7.30;;
45198;SDS011;30941;46.422;18.772;2022-10-23T15:36:18;10.40;;;7.82;;
45198;SDS011;30941;46.422;18.772;2022-10-23T15:38:43;10.88;;;7.93;;
45198;SDS011;30941;46.422;18.772;2022-10-23T15:41:12;12.38;;;9.00;;
45198;SDS011;30941;46.422;18.772;2022-10-23T15:43:38;11.10;;;8.88;;
45198;SDS011;30941;46.422;18.772;2022-10-23T15:46:04;12.10;;;9.85;;
45198;SDS011;30941;46.422;18.772;2022-10-23T15:48:29;11.88;;;10.35;;
45198;SDS011;30941;46.422;18.772;2022-10-23T15:50:54;14.00;;;10.52;;
45198;SDS011;30941;46.422;18.772;2022-10-23T15:53:19;14.93;;;11.32;;
45198;SDS011;30941;46.422;18.772;2022-10-23T15:55:46;15.60;;;11.20;;
45198;SDS011;30941;46.422;18.772;2022-10-23T15:58:12;14.45;;;11.07;;
45198;SDS011;30941;46.422;18.772;2022-10-23T16:00:39;14.35;;;11.60;;
45198;SDS011;30941;46.422;18.772;2022-10-23T16:03:04;15.55;;;11.82;;
45198;SDS011;30941;46.422;18.772;2022-10-23T16:05:30;17.65;;;11.82;;
45198;SDS011;30941;46.422;18.772;2022-10-23T16:07:55;14.88;;;11.60;;
45198;SDS011;30941;46.422;18.772;2022-10-23T16:10:21;16.13;;;11.98;;
45198;SDS011;30941;46.422;18.772;2022-10-23T16:12:50;15.10;;;12.50;;
45198;SDS011;30941;46.422;18.772;2022-10-23T16:15:15;15.50;;;12.68;;
45198;SDS011;30941;46.422;18.772;2022-10-23T16:17:41;17.13;;;13.55;;
45198;SDS011;30941;46.422;18.772;2022-10-23T16:20:06;19.52;;;14.00;;
45198;SDS011;30941;46.422;18.772;2022-10-23T16:22:32;18.98;;;15.10;;
45198;SDS011;30941;46.422;18.772;2022-10-23T16:24:57;18.42;;;13.35;;
45198;SDS011;30941;46.422;18.772;2022-10-23T16:27:23;18.95;;;14.73;;
45198;SDS011;30941;46.422;18.772;2022-10-23T16:29:48;17.92;;;13.93;;
45198;SDS011;30941;46.422;18.772;2022-10-23T16:32:13;18.77;;;14.82;;
45198;SDS011;30941;46.422;18.772;2022-10-23T16:34:39;18.42;;;14.00;;
45198;SDS011;30941;46.422;18.772;2022-10-23T16:37:04;18.30;;;14.43;;
45198;SDS011;30941;46.422;18.772;2022-10-23T16:39:29;19.13;;;15.10;;
45198;SDS011;30941;46.422;18.772;2022-10-23T16:41:55;20.48;;;15.40;;
45198;SDS011;30941;46.422;18.772;2022-10-23T16:44:21;20.35;;;15.80;;
45198;SDS011;30941;46.422;18.772;2022-10-23T16:46:46;20.20;;;15.32;;
45198;SDS011;30941;46.422;18.772;2022-10-23T16:49:12;18.65;;;15.05;;